Time;durP1;ratioP1;P1;durP2;ratioP2;P2;SDS_P1;SDS_P2;PMS_P1;PMS_P2;Temp;Humidity;BMP_temperature;BMP_pressure;BME280_temperature;BME280_humidity;BME280_pressure;Samples;Min_cycle;Max_cycle;Signal;HPM_P1;HPM_P2
2022/05/28 00:00:22;;;;;;;1.08;0.95;;;23.40;39.00;;;;;;8290728;28;20041;-40
2022/05/28 00:04:23;;;;;;;1.15;1.05;;;23.30;38.90;;;;;;8290636;28;20376;-39
2022/05/28 00:08:24;;;;;;;1.47;1.10;;;23.30;39.00;;;;;;8291104;28;20034;-39
2022/05/28 00:12:31;;;;;;;1.02;0.90;;;23.30;39.00;;;;;;8290076;28;20283;-39
2022/05/28 00:16:31;;;;;;;0.90;0.90;;;23.30;39.00;;;;;;8290286;28;20085;-39
2022/05/28 00:20:32;;;;;;;1.50;1.02;;;23.30;39.00;;;;;;8290384;28;20399;-39
2022/05/28 00:24:33;;;;;;;1.00;1.00;;;23.30;39.00;;;;;;8290212;28;20053;-39
2022/05/28 00:28:34;;;;;;;1.47;1.13;;;23.30;39.00;;;;;;8273992;28;20046;-39
2022/05/28 00:32:34;;;;;;;1.00;1.00;;;23.20;39.00;;;;;;8296224;28;20054;-39
2022/05/28 00:36:35;;;;;;;1.20;1.10;;;23.30;39.00;;;;;;8295449;28;20034;-39
2022/05/28 00:40:35;;;;;;;1.10;1.10;;;23.20;39.00;;;;;;8295967;28;20038;-39
2022/05/28 00:44:36;;;;;;;1.00;0.90;;;23.20;39.00;;;;;;8295518;28;20495;-39
2022/05/28 00:48:43;;;;;;;1.20;1.10;;;23.20;39.00;;;;;;8295391;28;20292;-39
2022/05/28 00:52:44;;;;;;;2.53;1.10;;;23.20;39.10;;;;;;8295453;28;20316;-39
2022/05/28 00:56:45;;;;;;;0.93;0.85;;;23.20;39.10;;;;;;8295503;28;20041;-39
2022/05/28 01:00:46;;;;;;;1.20;1.00;;;23.20;39.00;;;;;;8294816;28;20030;-39
2022/05/28 01:04:55;;;;;;;1.00;1.00;;;23.10;39.00;;;;;;8295257;28;20033;-39
2022/05/28 01:09:12;;;;;;;1.40;1.30;;;23.10;39.00;;;;;;8295393;28;20045;-40
2022/05/28 01:13:35;;;;;;;1.45;1.15;;;23.10;39.00;;;;;;8295045;28;20042;-39
2022/05/28 01:17:46;;;;;;;1.20;1.10;;;23.10;39.00;;;;;;8294911;28;20113;-40
2022/05/28 01:21:55;;;;;;;1.10;1.00;;;23.10;39.10;;;;;;8294035;28;20627;-40
2022/05/28 01:26:28;;;;;;;0.80;0.80;;;23.10;39.00;;;;;;8294704;28;20487;-40
2022/05/28 01:30:30;;;;;;;1.23;0.98;;;23.10;39.10;;;;;;8294071;28;20446;-39
2022/05/28 01:34:32;;;;;;;2.95;1.33;;;23.10;39.10;;;;;;8294524;28;20550;-40
2022/05/28 01:38:36;;;;;;;0.90;0.90;;;23.10;39.10;;;;;;8294422;28;20073;-40
2022/05/28 01:42:41;;;;;;;1.40;1.20;;;23.00;39.10;;;;;;8292399;28;20565;-40
2022/05/28 01:46:44;;;;;;;2.05;1.00;;;23.00;39.00;;;;;;8294352;28;20041;-40
2022/05/28 01:50:47;;;;;;;1.15;1.05;;;23.00;39.00;;;;;;8293649;28;20054;-40
2022/05/28 01:54:49;;;;;;;1.00;0.90;;;23.00;39.00;;;;;;8293124;28;20068;-40
2022/05/28 01:58:49;;;;;;;1.20;1.10;;;23.00;39.00;;;;;;8294643;28;20470;-40
2022/05/28 02:02:51;;;;;;;1.38;1.08;;;23.00;39.00;;;;;;8293208;28;20099;-40
2022/05/28 02:06:52;;;;;;;2.08;1.58;;;23.00;39.00;;;;;;8292695;28;20026;-40
2022/05/28 02:11:02;;;;;;;1.08;0.98;;;22.90;39.00;;;;;;8293075;28;20068;-40
2022/05/28 02:15:31;;;;;;;1.58;1.30;;;22.90;39.00;;;;;;8292838;28;20549;-40
2022/05/28 02:19:58;;;;;;;1.50;1.30;;;22.90;39.00;;;;;;8293556;28;20095;-40
2022/05/28 02:24:11;;;;;;;1.67;1.27;;;22.90;39.00;;;;;;8293088;28;20041;-40
2022/05/28 02:28:13;;;;;;;1.20;1.00;;;22.90;39.00;;;;;;8292226;28;20044;-40
2022/05/28 02:32:17;;;;;;;1.25;1.15;;;22.90;39.10;;;;;;8292562;28;20192;-40
2022/05/28 02:36:18;;;;;;;0.95;0.95;;;22.80;39.00;;;;;;8292226;28;20044;-39
2022/05/28 02:40:19;;;;;;;2.40;1.00;;;22.80;39.00;;;;;;8292142;28;20041;-39
2022/05/28 02:44:19;;;;;;;2.08;1.23;;;22.80;39.00;;;;;;8292798;28;20523;-39
2022/05/28 02:48:20;;;;;;;1.23;1.10;;;22.80;39.00;;;;;;8292120;28;20045;-40
2022/05/28 02:52:20;;;;;;;1.20;1.10;;;22.80;39.00;;;;;;8292154;28;20046;-40
2022/05/28 02:56:22;;;;;;;2.80;1.50;;;22.80;39.00;;;;;;8291900;28;20273;-40
2022/05/28 03:00:22;;;;;;;1.70;1.00;;;22.80;39.00;;;;;;8291302;28;20052;-40
2022/05/28 03:04:23;;;;;;;1.50;1.33;;;22.80;39.00;;;;;;8291903;28;20510;-39
2022/05/28 03:08:24;;;;;;;1.88;1.20;;;22.80;39.00;;;;;;8291714;28;20034;-40
2022/05/28 03:12:24;;;;;;;1.25;1.15;;;22.80;39.00;;;;;;8290907;28;20041;-39
2022/05/28 03:16:25;;;;;;;1.30;1.20;;;22.70;39.00;;;;;;8291633;28;20060;-39
2022/05/28 03:20:27;;;;;;;1.80;1.38;;;22.70;39.00;;;;;;8292044;28;20394;-39
2022/05/28 03:24:28;;;;;;;1.45;1.25;;;22.70;39.00;;;;;;8291420;28;20475;-39
2022/05/28 03:28:28;;;;;;;2.07;1.23;;;22.70;39.00;;;;;;8291295;28;20184;-39
2022/05/28 03:32:29;;;;;;;1.70;1.30;;;22.70;39.00;;;;;;8291550;28;20116;-39
2022/05/28 03:36:29;;;;;;;1.43;1.33;;;22.70;39.00;;;;;;8290426;28;20475;-39
2022/05/28 03:40:30;;;;;;;1.60;1.30;;;22.70;39.10;;;;;;8291191;28;20046;-40
2022/05/28 03:44:31;;;;;;;1.40;1.25;;;22.60;39.00;;;;;;8291493;28;20769;-39
2022/05/28 03:48:33;;;;;;;1.80;1.42;;;22.60;39.00;;;;;;8290804;28;20099;-39
2022/05/28 03:52:33;;;;;;;1.42;1.20;;;22.60;39.00;;;;;;8290767;28;20054;-39
2022/05/28 03:56:38;;;;;;;2.37;1.23;;;22.60;39.00;;;;;;8290864;28;20061;-39
2022/05/28 04:00:40;;;;;;;1.17;1.08;;;22.60;39.00;;;;;;8290341;28;20295;-39
2022/05/28 04:04:41;;;;;;;1.50;1.33;;;22.60;39.00;;;;;;8293883;28;20041;-39
2022/05/28 04:08:41;;;;;;;1.27;1.17;;;22.60;39.00;;;;;;8296893;28;20045;-39
2022/05/28 04:12:42;;;;;;;1.20;1.10;;;22.60;39.00;;;;;;8296069;28;20060;-40
2022/05/28 04:16:42;;;;;;;2.30;1.50;;;22.60;39.00;;;;;;8296683;28;20057;-40
2022/05/28 04:20:43;;;;;;;1.93;1.13;;;22.60;39.00;;;;;;8296661;28;20042;-40
2022/05/28 04:24:43;;;;;;;1.30;1.20;;;22.60;39.00;;;;;;8296444;28;20034;-40
2022/05/28 04:28:44;;;;;;;1.08;1.00;;;22.60;39.00;;;;;;8296749;28;20384;-40
2022/05/28 04:32:44;;;;;;;1.30;1.20;;;22.60;39.00;;;;;;8296050;28;20054;-40
2022/05/28 04:36:45;;;;;;;1.50;1.13;;;22.60;39.00;;;;;;8295573;28;20029;-40
2022/05/28 04:40:45;;;;;;;1.43;1.20;;;22.60;38.90;;;;;;8296159;28;20030;-40
2022/05/28 04:44:46;;;;;;;1.50;1.13;;;22.60;38.90;;;;;;8296223;28;20034;-40
2022/05/28 04:48:47;;;;;;;1.35;1.20;;;22.60;38.90;;;;;;8295507;28;20037;-40
2022/05/28 04:52:47;;;;;;;1.20;1.00;;;22.60;38.90;;;;;;8295574;28;20046;-40
2022/05/28 04:56:48;;;;;;;1.60;1.20;;;22.60;38.90;;;;;;8295423;28;20109;-40
2022/05/28 05:00:48;;;;;;;1.27;1.17;;;22.60;38.90;;;;;;8294866;28;20034;-40
2022/05/28 05:04:57;;;;;;;1.58;1.30;;;22.60;38.90;;;;;;8295358;28;20038;-40
2022/05/28 05:08:57;;;;;;;1.40;1.30;;;22.60;38.80;;;;;;8294948;28;20042;-39
2022/05/28 05:13:01;;;;;;;1.70;1.10;;;22.60;38.80;;;;;;8294334;28;20550;-40
2022/05/28 05:17:02;;;;;;;1.67;1.20;;;22.60;38.90;;;;;;8294710;28;20034;-40
2022/05/28 05:21:02;;;;;;;1.67;1.50;;;22.60;38.90;;;;;;8294563;28;20044;-40
2022/05/28 05:25:04;;;;;;;1.05;1.00;;;22.70;38.80;;;;;;8294692;28;20292;-40
2022/05/28 05:29:05;;;;;;;1.48;1.23;;;22.70;38.70;;;;;;8294107;28;20057;-40
2022/05/28 05:33:05;;;;;;;1.30;1.20;;;22.70;38.60;;;;;;8293768;28;20042;-40
2022/05/28 05:37:06;;;;;;;2.23;1.40;;;22.70;38.60;;;;;;8294196;28;20471;-39
2022/05/28 05:41:07;;;;;;;1.52;1.27;;;22.70;38.60;;;;;;8294559;28;20099;-40
2022/05/28 05:45:08;;;;;;;2.00;1.27;;;22.70;38.60;;;;;;8293761;28;20045;-40
2022/05/28 05:49:10;;;;;;;1.98;1.48;;;22.70;38.60;;;;;;8293622;28;20040;-40
2022/05/28 05:53:10;;;;;;;1.60;1.48;;;22.70;38.70;;;;;;8293232;28;20057;-40
2022/05/28 05:57:11;;;;;;;2.07;1.50;;;22.60;38.70;;;;;;8292980;28;20030;-41
2022/05/28 06:01:11;;;;;;;2.27;1.40;;;22.60;38.70;;;;;;8293408;28;20139;-41
2022/05/28 06:05:12;;;;;;;1.77;1.20;;;22.60;38.70;;;;;;8293333;28;20050;-40
2022/05/28 06:09:13;;;;;;;1.50;1.40;;;22.60;38.70;;;;;;8292449;28;20100;-41
2022/05/28 06:13:13;;;;;;;1.30;1.20;;;22.60;38.80;;;;;;8292869;28;20045;-41
2022/05/28 06:17:14;;;;;;;2.00;1.57;;;22.60;38.70;;;;;;8292868;28;20364;-40
2022/05/28 06:21:14;;;;;;;2.50;1.37;;;22.60;38.80;;;;;;8292399;28;20038;-41
2022/05/28 06:25:15;;;;;;;1.30;1.20;;;22.60;38.80;;;;;;8292730;28;20092;-41
2022/05/28 06:29:15;;;;;;;1.53;1.40;;;22.60;38.90;;;;;;8291984;28;20038;-40
2022/05/28 06:33:17;;;;;;;1.93;1.43;;;22.50;38.80;;;;;;8292038;28;20521;-40
2022/05/28 06:37:18;;;;;;;1.10;1.00;;;22.60;38.80;;;;;;8292584;28;20649;-40
2022/05/28 06:41:18;;;;;;;1.63;1.20;;;22.60;38.80;;;;;;8292469;28;20030;-40
2022/05/28 06:45:19;;;;;;;1.67;1.20;;;22.50;38.80;;;;;;8291682;28;20514;-41
2022/05/28 06:49:20;;;;;;;2.00;1.40;;;22.60;38.80;;;;;;8292494;28;20045;-40
2022/05/28 06:53:20;;;;;;;2.00;1.10;;;22.50;38.80;;;;;;8292072;28;20444;-40
2022/05/28 06:57:21;;;;;;;1.98;1.20;;;22.50;38.80;;;;;;8291483;28;20479;-41
2022/05/28 07:01:21;;;;;;;1.37;1.20;;;22.50;38.80;;;;;;8292163;28;20057;-40
2022/05/28 07:05:23;;;;;;;1.97;1.37;;;22.50;38.80;;;;;;8292098;28;20034;-40
2022/05/28 07:09:23;;;;;;;1.40;1.30;;;22.60;38.90;;;;;;8291390;28;20284;-40
2022/05/28 07:13:25;;;;;;;1.43;1.33;;;22.50;38.80;;;;;;8291630;28;20511;-40
2022/05/28 07:17:25;;;;;;;1.40;1.10;;;22.60;38.90;;;;;;8291313;28;20041;-41
2022/05/28 07:21:26;;;;;;;1.70;1.30;;;22.60;38.80;;;;;;8290832;28;20390;-40
2022/05/28 07:25:26;;;;;;;2.10;1.60;;;22.60;38.90;;;;;;8291399;28;20491;-41
2022/05/28 07:29:27;;;;;;;1.83;1.30;;;22.50;38.80;;;;;;8291315;28;20127;-40
2022/05/28 07:33:33;;;;;;;2.03;1.27;;;22.50;39.40;;;;;;8290589;28;20543;-40
2022/05/28 07:37:34;;;;;;;1.40;1.30;;;22.60;38.90;;;;;;8291045;28;20029;-40
2022/05/28 07:41:36;;;;;;;1.70;1.20;;;22.60;38.90;;;;;;8297594;28;20545;-40
2022/05/28 07:45:41;;;;;;;1.40;1.30;;;22.60;38.90;;;;;;8296914;28;20034;-40
2022/05/28 07:49:41;;;;;;;1.70;1.20;;;22.60;38.80;;;;;;8297590;28;20027;-40
2022/05/28 07:53:42;;;;;;;1.60;1.50;;;22.60;38.80;;;;;;8297427;28;20046;-41
2022/05/28 07:57:42;;;;;;;1.67;1.58;;;22.60;38.80;;;;;;8296752;28;20377;-40
2022/05/28 08:01:43;;;;;;;1.63;1.10;;;22.60;38.80;;;;;;8297514;28;20538;-40
2022/05/28 08:05:46;;;;;;;1.57;1.37;;;22.60;38.80;;;;;;8296985;28;20045;-40
2022/05/28 08:09:47;;;;;;;1.38;1.27;;;22.60;38.80;;;;;;8296200;28;20025;-40
2022/05/28 08:13:48;;;;;;;2.00;1.60;;;22.60;38.80;;;;;;8297024;28;20046;-40
2022/05/28 08:17:48;;;;;;;1.75;1.30;;;22.70;38.90;;;;;;8296563;28;20034;-40
2022/05/28 08:26:10;;;;;;;1.20;1.10;;;22.70;38.80;;;;;;8296537;28;20041;-40
2022/05/28 08:30:11;;;;;;;1.90;1.20;;;22.70;38.80;;;;;;8296336;28;20121;-41
2022/05/28 08:34:12;;;;;;;1.42;1.15;;;22.80;38.80;;;;;;8296241;28;20054;-40
2022/05/28 08:38:18;;;;;;;1.60;1.40;;;22.80;38.80;;;;;;8296025;28;20050;-40
2022/05/28 08:42:22;;;;;;;1.50;1.23;;;22.80;38.80;;;;;;8295740;28;20116;-40
2022/05/28 08:46:24;;;;;;;1.90;1.70;;;22.70;38.80;;;;;;8296382;28;20068;-40
2022/05/28 08:50:26;;;;;;;1.33;1.23;;;22.80;38.80;;;;;;8295218;28;20061;-40
2022/05/28 08:54:34;;;;;;;1.95;1.80;;;22.70;38.80;;;;;;8294969;28;20580;-41
2022/05/28 08:58:37;;;;;;;1.83;1.60;;;22.80;38.80;;;;;;8295320;28;20042;-39
2022/05/28 09:02:49;;;;;;;1.40;1.30;;;22.80;38.70;;;;;;8295476;28;20631;-39
2022/05/28 09:06:53;;;;;;;1.85;1.15;;;22.80;38.70;;;;;;8294952;28;20042;-39
2022/05/28 09:10:57;;;;;;;2.03;1.50;;;22.80;38.70;;;;;;8294478;28;20481;-39
2022/05/28 09:14:58;;;;;;;1.55;1.40;;;22.80;38.70;;;;;;8295258;28;20395;-39
2022/05/28 09:19:03;;;;;;;1.60;1.50;;;22.90;38.80;;;;;;8294251;28;20041;-40
2022/05/28 09:23:04;;;;;;;2.22;1.75;;;22.80;38.60;;;;;;8294733;28;20062;-40
2022/05/28 09:27:15;;;;;;;3.58;1.80;;;22.80;38.70;;;;;;8294462;28;20049;-41
2022/05/28 09:31:48;;;;;;;2.20;2.00;;;22.90;38.60;;;;;;8294366;28;20270;-40
2022/05/28 09:36:22;;;;;;;2.13;1.73;;;22.90;38.70;;;;;;8294074;28;20060;-40
2022/05/28 09:40:38;;;;;;;3.50;1.80;;;22.90;38.60;;;;;;8270424;28;20037;-40
2022/05/28 09:44:44;;;;;;;2.75;1.90;;;22.90;38.60;;;;;;8294183;28;20038;-41
2022/05/28 09:48:47;;;;;;;2.08;1.88;;;22.90;38.60;;;;;;8293596;28;20096;-41
2022/05/28 09:57:28;;;;;;;2.00;1.80;;;22.90;38.60;;;;;;8293277;28;20139;-41
2022/05/28 10:01:29;;;;;;;2.30;1.80;;;22.90;38.60;;;;;;8293208;28;20057;-41
2022/05/28 10:05:33;;;;;;;2.57;1.93;;;22.90;38.60;;;;;;8293774;28;20033;-41
2022/05/28 10:09:35;;;;;;;3.10;1.90;;;22.90;38.60;;;;;;8292630;28;20525;-41
2022/05/28 10:13:48;;;;;;;2.72;1.80;;;22.90;38.60;;;;;;8293062;28;20404;-41
2022/05/28 10:17:58;;;;;;;2.55;1.90;;;23.00;38.60;;;;;;8293343;28;20541;-41
2022/05/28 10:22:03;;;;;;;3.60;2.53;;;23.00;38.40;;;;;;8292580;28;20251;-41
2022/05/28 10:26:04;;;;;;;3.15;1.95;;;23.00;38.40;;;;;;8292979;28;20038;-40
2022/05/28 10:30:20;;;;;;;2.13;1.63;;;23.10;38.40;;;;;;8292143;28;20487;-40
2022/05/28 10:34:38;;;;;;;2.08;1.60;;;23.10;38.30;;;;;;8292622;28;20077;-41
2022/05/28 10:38:38;;;;;;;2.78;2.13;;;23.10;38.30;;;;;;8292502;28;20030;-41
2022/05/28 10:42:39;;;;;;;3.23;1.77;;;23.20;38.40;;;;;;8292084;28;20407;-40
2022/05/28 10:47:09;;;;;;;1.95;1.75;;;23.20;38.30;;;;;;8292203;28;20052;-40
2022/05/28 10:51:18;;;;;;;1.98;1.70;;;23.20;38.30;;;;;;8291553;28;20073;-40
2022/05/28 10:56:09;;;;;;;2.38;1.67;;;23.20;38.20;;;;;;8291967;28;20089;-40
2022/05/28 11:00:26;;;;;;;1.75;1.65;;;23.20;38.10;;;;;;8287882;28;20038;-40
2022/05/28 11:04:48;;;;;;;1.95;1.60;;;23.30;38.30;;;;;;8291465;28;20045;-40
2022/05/28 11:09:09;;;;;;;2.33;1.80;;;23.30;38.20;;;;;;8292096;28;20034;-41
2022/05/28 11:13:23;;;;;;;;;;;23.20;38.10;;;;;;8291731;28;20066;-40
2022/05/28 11:17:50;;;;;;;1.90;1.70;;;23.20;38.10;;;;;;8291426;28;19913;-40
2022/05/28 11:22:11;;;;;;;1.90;1.70;;;23.20;38.10;;;;;;8290579;28;20057;-41
2022/05/28 11:26:26;;;;;;;2.20;1.77;;;23.30;38.20;;;;;;8291118;28;20128;-40
2022/05/28 11:30:40;;;;;;;2.35;1.88;;;23.30;38.20;;;;;;8290590;28;20156;-40
2022/05/28 11:34:48;;;;;;;3.25;1.90;;;23.30;38.20;;;;;;8290959;28;20136;-40
2022/05/28 11:39:06;;;;;;;1.70;1.60;;;23.30;38.20;;;;;;8291065;28;20042;-40
2022/05/28 11:43:23;;;;;;;2.20;1.75;;;23.30;38.20;;;;;;8290858;28;20042;-41
2022/05/28 11:47:41;;;;;;;3.30;1.95;;;23.30;38.10;;;;;;8290881;28;20243;-40
2022/05/28 11:51:51;;;;;;;2.25;1.70;;;23.30;38.10;;;;;;8290201;28;20564;-41
2022/05/28 11:55:56;;;;;;;2.00;1.58;;;23.30;38.10;;;;;;8290756;28;20184;-41
2022/05/28 11:59:57;;;;;;;1.90;1.70;;;23.30;38.10;;;;;;8290701;28;20038;-40
2022/05/28 12:04:00;;;;;;;1.90;1.58;;;23.30;38.20;;;;;;8290640;28;20176;-40
2022/05/28 12:08:04;;;;;;;1.98;1.88;;;23.30;38.10;;;;;;8290556;28;20053;-40
2022/05/28 12:12:34;;;;;;;1.90;1.55;;;23.30;38.10;;;;;;8290145;28;20431;-41
2022/05/28 12:16:41;;;;;;;2.33;1.90;;;23.30;38.70;;;;;;8290624;28;20411;-41
2022/05/28 12:21:00;;;;;;;1.98;1.67;;;23.30;38.20;;;;;;8290337;28;20132;-40
2022/05/28 12:25:13;;;;;;;2.65;1.83;;;23.30;38.20;;;;;;8291534;28;20093;-40
2022/05/28 12:29:26;;;;;;;2.47;1.85;;;23.30;38.10;;;;;;8296201;28;20034;-41
2022/05/28 12:33:31;;;;;;;1.67;1.42;;;23.30;38.10;;;;;;8296043;28;20040;-40
2022/05/28 12:37:45;;;;;;;2.55;1.63;;;23.30;38.10;;;;;;8295692;28;20034;-40
2022/05/28 12:41:55;;;;;;;1.52;1.27;;;23.20;38.10;;;;;;8295897;28;20053;-40
2022/05/28 12:45:57;;;;;;;2.55;1.52;;;23.30;38.10;;;;;;8295165;28;20038;-41
2022/05/28 12:50:09;;;;;;;1.83;1.50;;;23.20;38.10;;;;;;8295561;28;20455;-40
2022/05/28 12:54:10;;;;;;;2.15;1.70;;;23.20;38.10;;;;;;8294786;28;20050;-40
2022/05/28 12:58:23;;;;;;;;;;;23.20;38.10;;;;;;8296411;28;20038;-40
2022/05/28 13:02:28;;;;;;;2.45;1.77;;;23.20;38.10;;;;;;8295378;28;20386;-41
2022/05/28 13:06:38;;;;;;;2.08;1.45;;;23.20;38.10;;;;;;8294491;28;20044;-41
2022/05/28 13:10:56;;;;;;;1.63;1.45;;;23.20;38.10;;;;;;8294825;28;20112;-40
2022/05/28 13:15:18;;;;;;;1.80;1.63;;;23.20;38.10;;;;;;8295112;28;20089;-40
2022/05/28 13:19:30;;;;;;;2.17;1.60;;;23.20;38.10;;;;;;8294365;28;20054;-40
2022/05/28 13:23:30;;;;;;;;;;;23.20;38.10;;;;;;8295014;28;20045;-40
2022/05/28 13:27:42;;;;;;;2.23;1.87;;;23.10;38.00;;;;;;8269905;28;19936;-40
2022/05/28 13:31:58;;;;;;;2.42;1.73;;;23.20;38.10;;;;;;8281926;28;20064;-40
2022/05/28 13:35:59;;;;;;;2.47;1.63;;;23.20;38.10;;;;;;8294021;28;20034;-40
2022/05/28 13:40:00;;;;;;;1.73;1.63;;;23.20;38.10;;;;;;8294016;28;20518;-40
2022/05/28 13:44:07;;;;;;;2.10;1.90;;;23.20;38.10;;;;;;8293883;28;20061;-40
2022/05/28 13:48:14;;;;;;;1.90;1.58;;;23.20;38.10;;;;;;8293934;28;20042;-40
2022/05/28 13:52:17;;;;;;;1.50;1.40;;;23.10;38.00;;;;;;8293398;28;20056;-40
2022/05/28 13:56:26;;;;;;;1.70;1.50;;;23.20;38.10;;;;;;8293570;28;20113;-40
2022/05/28 14:00:29;;;;;;;2.45;1.67;;;23.20;38.10;;;;;;8292884;28;20038;-40
2022/05/28 14:04:32;;;;;;;1.98;1.50;;;23.20;38.10;;;;;;8293154;28;20096;-40
2022/05/28 14:08:39;;;;;;;2.42;1.67;;;23.20;38.10;;;;;;8293456;28;20034;-40
2022/05/28 14:12:40;;;;;;;2.22;1.70;;;23.20;38.10;;;;;;8292436;28;20057;-40
2022/05/28 14:16:41;;;;;;;;;;;23.20;38.00;;;;;;8293758;28;20041;-40
2022/05/28 14:20:42;;;;;;;2.70;1.70;;;23.20;38.00;;;;;;8292892;28;19913;-42
2022/05/28 14:24:42;;;;;;;1.95;1.65;;;23.20;38.00;;;;;;8292137;28;20030;-41
2022/05/28 14:28:45;;;;;;;2.42;1.92;;;23.20;37.90;;;;;;8292863;28;20038;-40
2022/05/28 14:32:48;;;;;;;1.60;1.45;;;23.20;37.90;;;;;;8292371;28;20529;-40
2022/05/28 14:36:54;;;;;;;2.05;1.60;;;23.20;37.90;;;;;;8292132;28;20069;-41
2022/05/28 14:40:56;;;;;;;2.13;1.40;;;23.20;37.90;;;;;;8292367;28;20121;-40
2022/05/28 14:44:58;;;;;;;;;;;23.20;37.80;;;;;;8293278;28;20491;-39
2022/05/28 14:49:04;;;;;;;2.65;1.50;;;23.20;37.80;;;;;;8291919;28;19948;-40
2022/05/28 14:53:05;;;;;;;2.03;1.50;;;23.20;37.80;;;;;;8291897;28;20056;-40
2022/05/28 14:57:06;;;;;;;2.05;1.50;;;23.30;37.80;;;;;;8291043;28;20380;-40
2022/05/28 15:01:09;;;;;;;2.83;2.00;;;23.30;37.70;;;;;;8292136;28;20391;-40
2022/05/28 15:05:21;;;;;;;2.47;1.70;;;23.30;37.70;;;;;;8291624;28;20034;-40
2022/05/28 15:09:26;;;;;;;1.77;1.67;;;23.30;37.70;;;;;;8291224;28;20128;-40
2022/05/28 15:13:32;;;;;;;2.53;1.60;;;23.30;37.70;;;;;;8291665;28;20515;-40
2022/05/28 15:17:32;;;;;;;2.15;1.45;;;23.30;37.60;;;;;;8291464;28;20045;-40
2022/05/28 15:21:37;;;;;;;2.53;1.60;;;23.30;37.50;;;;;;8290811;28;20231;-40
2022/05/28 15:25:39;;;;;;;1.70;1.60;;;23.30;37.60;;;;;;8291149;28;20045;-40
2022/05/28 15:29:41;;;;;;;2.20;1.50;;;23.30;37.60;;;;;;8291809;28;20033;-40
2022/05/28 15:33:41;;;;;;;1.65;1.25;;;23.30;37.60;;;;;;8290461;28;20091;-40
2022/05/28 15:37:51;;;;;;;2.17;1.50;;;23.30;37.60;;;;;;8291279;28;20038;-39
2022/05/28 15:41:53;;;;;;;1.50;1.33;;;23.30;37.50;;;;;;8290949;28;20545;-40
2022/05/28 15:45:54;;;;;;;3.70;1.73;;;23.30;37.60;;;;;;8290284;28;20041;-40
2022/05/28 15:49:55;;;;;;;2.50;1.50;;;23.30;37.50;;;;;;8291402;28;20054;-40
2022/05/28 15:53:55;;;;;;;1.40;1.27;;;23.30;37.50;;;;;;8290836;28;20103;-40
2022/05/28 15:58:00;;;;;;;2.00;1.50;;;23.30;37.60;;;;;;8290386;28;20025;-40
2022/05/28 16:02:02;;;;;;;2.00;1.20;;;23.20;37.90;;;;;;8295802;28;20041;-39
2022/05/28 16:06:07;;;;;;;2.17;1.33;;;23.30;37.60;;;;;;8297481;28;20125;-40
2022/05/28 16:10:08;;;;;;;2.63;1.40;;;23.30;37.50;;;;;;8297557;28;20117;-40
2022/05/28 16:14:22;;;;;;;1.58;1.48;;;23.30;37.60;;;;;;8296958;28;20065;-40
2022/05/28 16:18:23;;;;;;;2.45;1.52;;;23.30;37.50;;;;;;8296361;28;21976;-40
2022/05/28 16:22:23;;;;;;;3.80;1.33;;;23.30;37.50;;;;;;8296654;28;20499;-39
2022/05/28 16:26:28;;;;;;;2.13;1.58;;;23.30;37.40;;;;;;8278906;28;20509;-40
2022/05/28 16:30:28;;;;;;;2.13;1.50;;;23.30;37.50;;;;;;8295972;28;20030;-39
2022/05/28 16:34:29;;;;;;;1.47;1.37;;;23.30;37.50;;;;;;8296585;28;20050;-40
2022/05/28 16:38:30;;;;;;;1.30;1.20;;;23.30;37.50;;;;;;8296296;28;20507;-40
2022/05/28 16:42:31;;;;;;;1.98;1.50;;;23.30;37.40;;;;;;8295410;28;20049;-40
2022/05/28 16:46:32;;;;;;;2.45;1.55;;;23.20;37.40;;;;;;8296134;28;20092;-40
2022/05/28 16:50:32;;;;;;;2.55;1.65;;;23.20;37.50;;;;;;8296087;28;20061;-40
2022/05/28 16:54:33;;;;;;;3.03;1.40;;;23.20;37.50;;;;;;8295119;28;20366;-40
2022/05/28 16:58:34;;;;;;;2.08;1.35;;;23.20;37.60;;;;;;8295672;28;20280;-40
2022/05/28 17:02:34;;;;;;;1.90;1.50;;;23.20;37.40;;;;;;8295352;28;20045;-40
2022/05/28 17:06:35;;;;;;;1.23;1.13;;;23.20;37.50;;;;;;8294893;28;20322;-40
2022/05/28 17:10:36;;;;;;;3.73;1.47;;;23.20;37.50;;;;;;8295139;28;20046;-40
2022/05/28 17:14:36;;;;;;;;;;;23.20;37.50;;;;;;8295530;28;20566;-40
2022/05/28 17:18:37;;;;;;;2.60;1.50;;;23.20;37.60;;;;;;8294354;28;19968;-39
2022/05/28 17:22:40;;;;;;;3.00;1.50;;;23.20;37.50;;;;;;8295100;28;20048;-40
2022/05/28 17:26:41;;;;;;;1.50;1.30;;;23.20;37.50;;;;;;8294347;28;20037;-39
2022/05/28 17:30:42;;;;;;;1.90;1.13;;;23.20;37.50;;;;;;8294181;28;20092;-40
2022/05/28 17:34:46;;;;;;;1.58;1.38;;;23.10;37.50;;;;;;8294295;28;20045;-39
2022/05/28 17:38:46;;;;;;;2.47;1.35;;;23.10;37.40;;;;;;8294236;28;20042;-39
2022/05/28 17:42:47;;;;;;;2.07;1.10;;;23.10;37.50;;;;;;8293504;28;20475;-39
2022/05/28 17:46:48;;;;;;;1.25;1.15;;;23.10;37.40;;;;;;8294413;28;20058;-39
2022/05/28 17:50:49;;;;;;;1.60;1.45;;;23.10;37.40;;;;;;8294098;28;20030;-39
2022/05/28 17:54:49;;;;;;;;;;;23.10;37.50;;;;;;8294214;28;20325;-39
2022/05/28 17:58:50;;;;;;;2.30;1.27;;;23.10;37.40;;;;;;8293665;28;19918;-39
2022/05/28 18:02:53;;;;;;;2.67;1.40;;;23.00;37.40;;;;;;8293832;28;20057;-39
2022/05/28 18:06:53;;;;;;;1.30;1.10;;;23.00;37.30;;;;;;8292782;28;20273;-39
2022/05/28 18:10:55;;;;;;;1.58;1.40;;;23.00;37.40;;;;;;8293512;28;20038;-40
2022/05/28 18:14:55;;;;;;;1.50;1.13;;;23.00;37.40;;;;;;8292855;28;20048;-40
2022/05/28 18:18:58;;;;;;;1.60;1.50;;;23.00;37.50;;;;;;8292106;28;20029;-40
2022/05/28 18:23:01;;;;;;;1.35;1.25;;;23.00;37.50;;;;;;8292256;28;20113;-41
2022/05/28 18:27:03;;;;;;;1.73;1.10;;;23.00;37.50;;;;;;8292687;28;20046;-40
2022/05/28 18:31:04;;;;;;;1.92;1.27;;;23.00;37.50;;;;;;8292573;28;20045;-40
2022/05/28 18:35:05;;;;;;;1.33;1.13;;;23.00;37.50;;;;;;8292479;28;20614;-40
2022/05/28 18:39:08;;;;;;;;;;;23.00;37.50;;;;;;8292198;28;20513;-40
2022/05/28 18:43:10;;;;;;;1.10;0.90;;;23.00;37.50;;;;;;8291930;28;19924;-40
2022/05/28 18:47:11;;;;;;;1.92;1.52;;;23.00;37.50;;;;;;8292305;28;20045;-40
2022/05/28 18:51:12;;;;;;;1.93;1.50;;;23.00;37.50;;;;;;8291442;28;20042;-40
2022/05/28 18:55:13;;;;;;;;;;;23.00;37.50;;;;;;8292440;28;20276;-40
2022/05/28 18:59:17;;;;;;;1.20;1.10;;;23.00;37.50;;;;;;8291815;28;19913;-39
2022/05/28 19:03:17;;;;;;;1.58;1.23;;;23.00;37.50;;;;;;8291222;28;20033;-40
2022/05/28 19:07:25;;;;;;;1.73;1.20;;;23.00;37.50;;;;;;8291420;28;20061;-40
2022/05/28 19:11:26;;;;;;;1.40;1.30;;;23.00;37.50;;;;;;8291856;28;20042;-41
2022/05/28 19:15:27;;;;;;;1.75;1.20;;;22.90;37.50;;;;;;8290753;28;20034;-40
2022/05/28 19:19:28;;;;;;;1.37;1.27;;;22.90;37.50;;;;;;8291607;28;20038;-39
2022/05/28 19:23:28;;;;;;;1.77;1.35;;;22.90;37.40;;;;;;8291237;28;20399;-40
2022/05/28 19:27:31;;;;;;;1.43;1.10;;;22.90;37.40;;;;;;8290848;28;20030;-39
2022/05/28 19:31:32;;;;;;;1.20;1.10;;;22.90;37.50;;;;;;8291276;28;20296;-40
2022/05/28 19:35:34;;;;;;;1.73;1.17;;;22.90;37.50;;;;;;8298897;28;20034;-40
2022/05/28 19:39:34;;;;;;;1.33;1.23;;;22.90;37.50;;;;;;8301643;28;20486;-39
2022/05/28 19:43:37;;;;;;;2.07;1.27;;;22.90;37.50;;;;;;8302002;28;20108;-39
2022/05/28 19:47:38;;;;;;;1.58;1.10;;;22.80;37.50;;;;;;8302317;28;20356;-41
2022/05/28 19:51:39;;;;;;;1.58;1.30;;;22.90;37.60;;;;;;8301134;28;20046;-41
2022/05/28 19:55:42;;;;;;;2.72;1.58;;;22.80;37.50;;;;;;8301879;28;20080;-40
2022/05/28 19:59:46;;;;;;;1.95;1.45;;;22.80;37.50;;;;;;8301536;28;20073;-40
2022/05/28 20:03:46;;;;;;;1.52;1.40;;;22.80;37.50;;;;;;8301175;28;20030;-40
2022/05/28 20:07:47;;;;;;;1.10;1.10;;;22.80;37.50;;;;;;8301361;28;20266;-40
2022/05/28 20:11:48;;;;;;;1.63;1.30;;;22.80;37.50;;;;;;8302167;28;20064;-40
2022/05/28 20:15:49;;;;;;;2.10;1.20;;;22.80;37.50;;;;;;8300672;28;20053;-40
2022/05/28 20:19:49;;;;;;;;;;;22.80;37.50;;;;;;8302129;28;20034;-41
2022/05/28 20:23:50;;;;;;;1.53;1.10;;;22.80;37.50;;;;;;8301067;28;19920;-41
2022/05/28 20:27:51;;;;;;;1.52;1.30;;;22.70;37.50;;;;;;8300899;28;20309;-40
2022/05/28 20:31:52;;;;;;;1.58;1.10;;;22.80;37.50;;;;;;8301129;28;20050;-40
2022/05/28 20:35:53;;;;;;;1.98;1.20;;;22.70;37.50;;;;;;8301291;28;20250;-40
2022/05/28 20:39:54;;;;;;;1.65;1.10;;;22.70;37.50;;;;;;8300676;28;20034;-40
2022/05/28 20:43:54;;;;;;;1.17;1.07;;;22.70;37.50;;;;;;8301226;28;20061;-41
2022/05/28 20:47:56;;;;;;;1.00;0.90;;;22.70;37.40;;;;;;8295758;28;20063;-40
2022/05/28 20:51:57;;;;;;;2.25;1.50;;;22.70;37.40;;;;;;8295277;28;20077;-41
2022/05/28 20:55:59;;;;;;;2.40;1.07;;;22.70;37.40;;;;;;8295533;28;20049;-41
2022/05/28 20:59:59;;;;;;;1.95;1.08;;;22.70;37.40;;;;;;8295576;28;20034;-41
2022/05/28 21:04:05;;;;;;;1.30;1.20;;;22.70;37.40;;;;;;8294631;28;20617;-40
2022/05/28 21:08:06;;;;;;;1.88;1.08;;;22.70;37.90;;;;;;8295422;28;20125;-40
2022/05/28 21:12:07;;;;;;;1.65;1.10;;;22.70;37.40;;;;;;8294667;28;20045;-40
2022/05/28 21:16:10;;;;;;;1.75;1.00;;;22.70;37.40;;;;;;8295201;28;20042;-41
2022/05/28 21:20:12;;;;;;;1.80;1.10;;;22.60;37.30;;;;;;8294956;28;20450;-41
2022/05/28 21:24:13;;;;;;;1.80;1.30;;;22.60;37.30;;;;;;8294146;28;20510;-41